sensor_id;sensor_type;location;lat;lon;timestamp;pressure;altitude;pressure_sealevel;temperature;humidity
58686;BME280;44465;53.206;-6.106;2023-07-24T00:01:15;100684.66;;;22.72;51.47
58686;BME280;44465;53.206;-6.106;2023-07-24T00:03:40;100678.44;;;22.72;51.85
58686;BME280;44465;53.206;-6.106;2023-07-24T00:06:05;100666.16;;;22.68;51.35
58686;BME280;44465;53.206;-6.106;2023-07-24T00:08:31;100668.13;;;22.66;51.58
58686;BME280;44465;53.206;-6.106;2023-07-24T00:10:56;100667.91;;;22.69;51.29
58686;BME280;44465;53.206;-6.106;2023-07-24T00:13:22;100677.50;;;22.73;51.52
58686;BME280;44465;53.206;-6.106;2023-07-24T00:15:47;100674.16;;;22.69;51.56
58686;BME280;44465;53.206;-6.106;2023-07-24T00:18:13;100673.06;;;22.72;51.37
58686;BME280;44465;53.206;-6.106;2023-07-24T00:20:39;100678.44;;;22.72;51.81
58686;BME280;44465;53.206;-6.106;2023-07-24T00:23:04;100683.81;;;22.72;51.67
58686;BME280;44465;53.206;-6.106;2023-07-24T00:25:30;100687.34;;;22.72;51.85
58686;BME280;44465;53.206;-6.106;2023-07-24T00:27:55;100682.09;;;22.71;51.49
58686;BME280;44465;53.206;-6.106;2023-07-24T00:30:20;100665.81;;;22.59;51.66
58686;BME280;44465;53.206;-6.106;2023-07-24T00:32:46;100673.47;;;22.66;51.41
58686;BME280;44465;53.206;-6.106;2023-07-24T00:35:11;100678.56;;;22.70;51.46
58686;BME280;44465;53.206;-6.106;2023-07-24T00:37:37;100682.50;;;22.65;51.54
58686;BME280;44465;53.206;-6.106;2023-07-24T00:40:03;100678.84;;;22.66;51.53
58686;BME280;44465;53.206;-6.106;2023-07-24T00:42:29;100688.41;;;22.70;51.54
58686;BME280;44465;53.206;-6.106;2023-07-24T00:44:54;100689.38;;;22.69;51.56
58686;BME280;44465;53.206;-6.106;2023-07-24T00:47:20;100684.00;;;22.69;51.51
58686;BME280;44465;53.206;-6.106;2023-07-24T00:49:46;100671.28;;;22.58;51.13
58686;BME280;44465;53.206;-6.106;2023-07-24T00:52:12;100684.00;;;22.69;51.39
58686;BME280;44465;53.206;-6.106;2023-07-24T00:54:38;100695.63;;;22.69;51.40
58686;BME280;44465;53.206;-6.106;2023-07-24T00:57:05;100673.47;;;22.66;51.38
58686;BME280;44465;53.206;-6.106;2023-07-24T00:59:31;100688.53;;;22.68;51.50
58686;BME280;44465;53.206;-6.106;2023-07-24T01:01:57;100691.09;;;22.70;51.25
58686;BME280;44465;53.206;-6.106;2023-07-24T01:04:22;100677.50;;;22.58;51.20
58686;BME280;44465;53.206;-6.106;2023-07-24T01:06:48;100682.56;;;22.63;51.46
58686;BME280;44465;53.206;-6.106;2023-07-24T01:09:14;100686.03;;;22.65;51.69
58686;BME280;44465;53.206;-6.106;2023-07-24T01:14:51;100698.50;;;22.66;51.45
58686;BME280;44465;53.206;-6.106;2023-07-24T01:17:22;100693.22;;;22.65;51.36
58686;BME280;44465;53.206;-6.106;2023-07-24T01:19:51;100691.31;;;22.67;51.48
58686;BME280;44465;53.206;-6.106;2023-07-24T01:25:33;100701.34;;;22.63;51.45
58686;BME280;44465;53.206;-6.106;2023-07-24T01:28:06;100688.22;;;22.58;51.23
58686;BME280;44465;53.206;-6.106;2023-07-24T01:30:32;100682.13;;;22.56;51.36
58686;BME280;44465;53.206;-6.106;2023-07-24T01:32:58;100676.06;;;22.53;51.37
58686;BME280;44465;53.206;-6.106;2023-07-24T01:35:23;100706.72;;;22.63;51.26
58686;BME280;44465;53.206;-6.106;2023-07-24T01:37:50;100702.31;;;22.62;51.60
58686;BME280;44465;53.206;-6.106;2023-07-24T01:40:17;100701.56;;;22.60;51.34
58686;BME280;44465;53.206;-6.106;2023-07-24T01:42:42;100689.59;;;22.51;51.32
58686;BME280;44465;53.206;-6.106;2023-07-24T01:45:08;100700.81;;;22.58;51.23
58686;BME280;44465;53.206;-6.106;2023-07-24T01:47:34;100715.56;;;22.65;51.19
58686;BME280;44465;53.206;-6.106;2023-07-24T01:49:59;100723.72;;;22.64;51.40
58686;BME280;44465;53.206;-6.106;2023-07-24T01:52:25;100708.75;;;22.59;51.69
58686;BME280;44465;53.206;-6.106;2023-07-24T01:54:51;100701.28;;;22.50;50.95
58686;BME280;44465;53.206;-6.106;2023-07-24T01:57:16;100721.09;;;22.62;51.48
58686;BME280;44465;53.206;-6.106;2023-07-24T01:59:42;100710.47;;;22.60;51.33
58686;BME280;44465;53.206;-6.106;2023-07-24T02:02:09;100715.84;;;22.60;51.34
58686;BME280;44465;53.206;-6.106;2023-07-24T02:04:34;100715.38;;;22.54;51.34
58686;BME280;44465;53.206;-6.106;2023-07-24T02:07:00;100716.81;;;22.59;51.46
58686;BME280;44465;53.206;-6.106;2023-07-24T02:09:25;100722.16;;;22.59;51.33
58686;BME280;44465;53.206;-6.106;2023-07-24T02:11:51;100716.13;;;22.56;51.50
58686;BME280;44465;53.206;-6.106;2023-07-24T02:14:17;100721.41;;;22.57;51.38
58686;BME280;44465;53.206;-6.106;2023-07-24T02:16:43;100702.53;;;22.44;51.36
58686;BME280;44465;53.206;-6.106;2023-07-24T02:19:09;100720.44;;;22.58;51.20
58686;BME280;44465;53.206;-6.106;2023-07-24T02:21:34;100715.28;;;22.55;51.06
58686;BME280;44465;53.206;-6.106;2023-07-24T02:24:00;100727.75;;;22.56;51.23
58686;BME280;44465;53.206;-6.106;2023-07-24T02:26:25;100718.72;;;22.57;51.03
58686;BME280;44465;53.206;-6.106;2023-07-24T02:28:51;100719.59;;;22.58;51.20
58686;BME280;44465;53.206;-6.106;2023-07-24T02:31:16;100727.53;;;22.59;51.39
58686;BME280;44465;53.206;-6.106;2023-07-24T02:33:42;100713.75;;;22.51;51.27
58686;BME280;44465;53.206;-6.106;2023-07-24T02:36:08;100731.19;;;22.58;51.27
58686;BME280;44465;53.206;-6.106;2023-07-24T02:38:33;100714.03;;;22.46;51.35
58686;BME280;44465;53.206;-6.106;2023-07-24T02:40:59;100733.97;;;22.57;51.24
58686;BME280;44465;53.206;-6.106;2023-07-24T02:43:24;100733.19;;;22.55;51.13
58686;BME280;44465;53.206;-6.106;2023-07-24T02:45:50;100742.88;;;22.57;51.58
58686;BME280;44465;53.206;-6.106;2023-07-24T02:48:15;100730.13;;;22.46;51.26
58686;BME280;44465;53.206;-6.106;2023-07-24T02:50:41;100743.84;;;22.56;51.42
58686;BME280;44465;53.206;-6.106;2023-07-24T02:53:06;100749.22;;;22.56;51.31
58686;BME280;44465;53.206;-6.106;2023-07-24T02:55:32;100740.47;;;22.53;51.14
58686;BME280;44465;53.206;-6.106;2023-07-24T02:57:57;100743.84;;;22.56;51.21
58686;BME280;44465;53.206;-6.106;2023-07-24T03:00:23;100751.91;;;22.56;51.15
58686;BME280;44465;53.206;-6.106;2023-07-24T03:02:48;100741.44;;;22.52;51.39
58686;BME280;44465;53.206;-6.106;2023-07-24T03:05:14;100735.41;;;22.48;51.04
58686;BME280;44465;53.206;-6.106;2023-07-24T03:07:39;100747.38;;;22.57;51.25
58686;BME280;44465;53.206;-6.106;2023-07-24T03:10:05;100744.31;;;22.49;51.33
58686;BME280;44465;53.206;-6.106;2023-07-24T03:12:31;100754.59;;;22.56;51.31
58686;BME280;44465;53.206;-6.106;2023-07-24T03:14:56;100754.59;;;22.56;51.25
58686;BME280;44465;53.206;-6.106;2023-07-24T03:17:22;100748.75;;;22.50;51.01
58686;BME280;44465;53.206;-6.106;2023-07-24T03:19:48;100749.47;;;22.52;51.19
58686;BME280;44465;53.206;-6.106;2023-07-24T03:22:14;100753.16;;;22.51;51.11
58686;BME280;44465;53.206;-6.106;2023-07-24T03:24:40;100751.50;;;22.48;51.40
58686;BME280;44465;53.206;-6.106;2023-07-24T03:27:05;100760.97;;;22.54;51.12
58686;BME280;44465;53.206;-6.106;2023-07-24T03:29:31;100730.75;;;22.36;51.11
58686;BME280;44465;53.206;-6.106;2023-07-24T03:31:56;100760.13;;;22.53;51.16
58686;BME280;44465;53.206;-6.106;2023-07-24T03:34:22;100761.19;;;22.51;51.25
58686;BME280;44465;53.206;-6.106;2023-07-24T03:36:47;100770.88;;;22.53;51.29
58686;BME280;44465;53.206;-6.106;2023-07-24T03:39:13;100770.09;;;22.51;50.92
58686;BME280;44465;53.206;-6.106;2023-07-24T03:41:39;100768.19;;;22.53;50.94
58686;BME280;44465;53.206;-6.106;2023-07-24T03:44:05;100770.00;;;22.53;51.02
58686;BME280;44465;53.206;-6.106;2023-07-24T03:46:32;100784.28;;;22.53;51.19
58686;BME280;44465;53.206;-6.106;2023-07-24T03:48:57;100788.78;;;22.53;51.13
58686;BME280;44465;53.206;-6.106;2023-07-24T03:51:23;100784.38;;;22.52;51.26
58686;BME280;44465;53.206;-6.106;2023-07-24T03:53:48;100779.97;;;22.51;51.14
58686;BME280;44465;53.206;-6.106;2023-07-24T03:56:14;100787.16;;;22.50;51.20
58686;BME280;44465;53.206;-6.106;2023-07-24T03:58:39;100788.03;;;22.51;51.27
58686;BME280;44465;53.206;-6.106;2023-07-24T04:01:05;100792.53;;;22.50;51.42
58686;BME280;44465;53.206;-6.106;2023-07-24T04:03:31;100795.97;;;22.52;51.05
58686;BME280;44465;53.206;-6.106;2023-07-24T04:05:56;100798.66;;;22.52;51.18
58686;BME280;44465;53.206;-6.106;2023-07-24T04:08:22;100804.13;;;22.51;51.12
58686;BME280;44465;53.206;-6.106;2023-07-24T04:10:47;100803.25;;;22.50;51.33
58686;BME280;44465;53.206;-6.106;2023-07-24T04:13:12;100797.13;;;22.48;51.20
58686;BME280;44465;53.206;-6.106;2023-07-24T04:15:38;100797.03;;;22.50;51.21
58686;BME280;44465;53.206;-6.106;2023-07-24T04:18:05;100790.13;;;22.45;51.06
58686;BME280;44465;53.206;-6.106;2023-07-24T04:20:30;100794.44;;;22.48;51.21
58686;BME280;44465;53.206;-6.106;2023-07-24T04:22:56;100804.97;;;22.51;51.00
58686;BME280;44465;53.206;-6.106;2023-07-24T04:25:21;100802.31;;;22.51;51.21
58686;BME280;44465;53.206;-6.106;2023-07-24T04:27:47;100800.47;;;22.52;51.25
58686;BME280;44465;53.206;-6.106;2023-07-24T04:30:13;100791.19;;;22.43;51.13
58686;BME280;44465;53.206;-6.106;2023-07-24T04:32:38;100786.13;;;22.37;51.40
58686;BME280;44465;53.206;-6.106;2023-07-24T04:35:04;100801.69;;;22.46;51.10
58686;BME280;44465;53.206;-6.106;2023-07-24T04:37:29;100780.09;;;22.33;50.93
58686;BME280;44465;53.206;-6.106;2023-07-24T04:39:55;100803.44;;;22.47;51.04
58686;BME280;44465;53.206;-6.106;2023-07-24T04:42:21;100801.91;;;22.43;51.39
58686;BME280;44465;53.206;-6.106;2023-07-24T04:44:46;100800.50;;;22.36;51.15
58686;BME280;44465;53.206;-6.106;2023-07-24T04:47:12;100808.22;;;22.42;51.04
58686;BME280;44465;53.206;-6.106;2023-07-24T04:49:37;100825.78;;;22.48;51.15
58686;BME280;44465;53.206;-6.106;2023-07-24T04:52:03;100820.41;;;22.48;51.00
58686;BME280;44465;53.206;-6.106;2023-07-24T04:54:29;100821.47;;;22.45;51.10
58686;BME280;44465;53.206;-6.106;2023-07-24T04:56:54;100827.59;;;22.47;51.17
58686;BME280;44465;53.206;-6.106;2023-07-24T04:59:20;100823.16;;;22.46;51.02
58686;BME280;44465;53.206;-6.106;2023-07-24T05:01:45;100837.38;;;22.48;51.23
58686;BME280;44465;53.206;-6.106;2023-07-24T05:04:10;100825.09;;;22.44;50.93
58686;BME280;44465;53.206;-6.106;2023-07-24T05:06:36;100837.38;;;22.48;51.08
58686;BME280;44465;53.206;-6.106;2023-07-24T05:09:03;100835.63;;;22.47;51.25
58686;BME280;44465;53.206;-6.106;2023-07-24T05:11:29;100827.13;;;22.40;51.00
58686;BME280;44465;53.206;-6.106;2023-07-24T05:13:54;100837.38;;;22.48;51.34
58686;BME280;44465;53.206;-6.106;2023-07-24T05:16:20;100844.63;;;22.46;51.22
58686;BME280;44465;53.206;-6.106;2023-07-24T05:18:45;100841.00;;;22.47;51.22
58686;BME280;44465;53.206;-6.106;2023-07-24T05:21:11;100822.97;;;22.35;51.11
58686;BME280;44465;53.206;-6.106;2023-07-24T05:23:36;100854.34;;;22.49;51.01
58686;BME280;44465;53.206;-6.106;2023-07-24T05:26:03;100864.13;;;22.50;51.32
58686;BME280;44465;53.206;-6.106;2023-07-24T05:28:29;100855.19;;;22.49;51.10
58686;BME280;44465;53.206;-6.106;2023-07-24T05:30:55;100855.56;;;22.43;51.36
58686;BME280;44465;53.206;-6.106;2023-07-24T05:33:21;100859.72;;;22.49;51.24
58686;BME280;44465;53.206;-6.106;2023-07-24T05:35:48;100863.25;;;22.49;51.49
58686;BME280;44465;53.206;-6.106;2023-07-24T05:38:13;100849.25;;;22.44;51.18
58686;BME280;44465;53.206;-6.106;2023-07-24T05:40:39;100865.94;;;22.49;51.15
58686;BME280;44465;53.206;-6.106;2023-07-24T05:43:04;100859.03;;;22.45;51.10
58686;BME280;44465;53.206;-6.106;2023-07-24T05:45:30;100865.16;;;22.47;51.22
58686;BME280;44465;53.206;-6.106;2023-07-24T05:47:55;100853.03;;;22.40;51.19
58686;BME280;44465;53.206;-6.106;2023-07-24T05:50:21;100865.16;;;22.47;51.22
58686;BME280;44465;53.206;-6.106;2023-07-24T05:52:46;100868.72;;;22.48;51.21
58686;BME280;44465;53.206;-6.106;2023-07-24T05:55:11;100868.72;;;22.48;50.95
58686;BME280;44465;53.206;-6.106;2023-07-24T05:57:37;100866.09;;;22.46;51.16
58686;BME280;44465;53.206;-6.106;2023-07-24T06:00:03;100875.81;;;22.49;51.10
58686;BME280;44465;53.206;-6.106;2023-07-24T06:02:36;100880.28;;;22.48;51.19
58686;BME280;44465;53.206;-6.106;2023-07-24T06:05:02;100881.19;;;22.49;50.96
58686;BME280;44465;53.206;-6.106;2023-07-24T06:07:27;100882.03;;;22.49;51.01
58686;BME280;44465;53.206;-6.106;2023-07-24T06:09:53;100881.06;;;22.50;51.12
58686;BME280;44465;53.206;-6.106;2023-07-24T06:12:18;100883.25;;;22.43;51.19
58686;BME280;44465;53.206;-6.106;2023-07-24T06:14:44;100885.00;;;22.44;51.24
58686;BME280;44465;53.206;-6.106;2023-07-24T06:17:09;100889.13;;;22.50;51.19
58686;BME280;44465;53.206;-6.106;2023-07-24T06:19:34;100881.06;;;22.50;51.26
58686;BME280;44465;53.206;-6.106;2023-07-24T06:22:00;100882.97;;;22.48;51.14
58686;BME280;44465;53.206;-6.106;2023-07-24T06:24:25;100883.94;;;22.47;51.36
58686;BME280;44465;53.206;-6.106;2023-07-24T06:26:51;100887.41;;;22.49;51.22
58686;BME280;44465;53.206;-6.106;2023-07-24T06:29:16;100892.75;;;22.49;51.00
58686;BME280;44465;53.206;-6.106;2023-07-24T06:31:42;100894.50;;;22.50;50.93
58686;BME280;44465;53.206;-6.106;2023-07-24T06:34:07;100894.50;;;22.50;51.02
58686;BME280;44465;53.206;-6.106;2023-07-24T06:36:33;100903.50;;;22.49;51.01
58686;BME280;44465;53.206;-6.106;2023-07-24T06:38:58;100899.84;;;22.50;51.06
58686;BME280;44465;53.206;-6.106;2023-07-24T06:41:24;100897.19;;;22.50;51.22
58686;BME280;44465;53.206;-6.106;2023-07-24T06:43:50;100904.38;;;22.50;50.97
58686;BME280;44465;53.206;-6.106;2023-07-24T06:46:16;100898.91;;;22.51;51.07
58686;BME280;44465;53.206;-6.106;2023-07-24T06:48:41;100903.31;;;22.52;50.87
58686;BME280;44465;53.206;-6.106;2023-07-24T06:51:07;100904.38;;;22.50;51.00
58686;BME280;44465;53.206;-6.106;2023-07-24T06:53:32;100908.69;;;22.52;51.04
58686;BME280;44465;53.206;-6.106;2023-07-24T06:55:57;100908.69;;;22.52;50.94
58686;BME280;44465;53.206;-6.106;2023-07-24T06:58:23;100905.13;;;22.52;50.86
58686;BME280;44465;53.206;-6.106;2023-07-24T07:00:48;100908.69;;;22.52;51.25
58686;BME280;44465;53.206;-6.106;2023-07-24T07:03:14;100900.03;;;22.47;50.96
58686;BME280;44465;53.206;-6.106;2023-07-24T07:05:39;100910.50;;;22.52;51.12
58686;BME280;44465;53.206;-6.106;2023-07-24T07:08:05;100912.31;;;22.51;51.06
58686;BME280;44465;53.206;-6.106;2023-07-24T07:10:30;100919.44;;;22.52;51.07
58686;BME280;44465;53.206;-6.106;2023-07-24T07:12:56;100905.22;;;22.50;51.08
58686;BME280;44465;53.206;-6.106;2023-07-24T07:15:21;100911.66;;;22.48;51.11
58686;BME280;44465;53.206;-6.106;2023-07-24T07:17:47;100913.94;;;22.54;51.10
58686;BME280;44465;53.206;-6.106;2023-07-24T07:20:12;100906.19;;;22.49;51.03
58686;BME280;44465;53.206;-6.106;2023-07-24T07:22:38;100922.88;;;22.54;50.92
58686;BME280;44465;53.206;-6.106;2023-07-24T07:25:03;100921.06;;;22.55;51.12
58686;BME280;44465;53.206;-6.106;2023-07-24T07:27:29;100927.31;;;22.55;51.08
58686;BME280;44465;53.206;-6.106;2023-07-24T07:29:54;100924.63;;;22.55;51.02
58686;BME280;44465;53.206;-6.106;2023-07-24T07:32:20;100919.53;;;22.51;50.96
58686;BME280;44465;53.206;-6.106;2023-07-24T07:34:45;100933.53;;;22.56;51.03
58686;BME280;44465;53.206;-6.106;2023-07-24T07:37:11;100929.19;;;22.53;51.05
58686;BME280;44465;53.206;-6.106;2023-07-24T07:39:36;100933.63;;;22.54;50.97
58686;BME280;44465;53.206;-6.106;2023-07-24T07:42:02;100936.31;;;22.54;51.03
58686;BME280;44465;53.206;-6.106;2023-07-24T07:44:28;100937.25;;;22.53;50.83
58686;BME280;44465;53.206;-6.106;2023-07-24T07:46:53;100929.28;;;22.52;51.14
58686;BME280;44465;53.206;-6.106;2023-07-24T07:49:19;100941.66;;;22.54;51.07
58686;BME280;44465;53.206;-6.106;2023-07-24T07:51:44;100940.72;;;22.55;50.93
58686;BME280;44465;53.206;-6.106;2023-07-24T07:54:09;100933.78;;;22.51;51.11
58686;BME280;44465;53.206;-6.106;2023-07-24T07:56:35;100944.34;;;22.54;50.90
58686;BME280;44465;53.206;-6.106;2023-07-24T07:59:00;100940.13;;;22.50;51.36
58686;BME280;44465;53.206;-6.106;2023-07-24T08:01:26;100954.03;;;22.57;50.81
58686;BME280;44465;53.206;-6.106;2023-07-24T08:03:51;100959.31;;;22.58;51.07
58686;BME280;44465;53.206;-6.106;2023-07-24T08:06:17;100951.25;;;22.58;51.11
58686;BME280;44465;53.206;-6.106;2023-07-24T08:08:42;100951.25;;;22.58;50.93
58686;BME280;44465;53.206;-6.106;2023-07-24T08:11:08;100952.97;;;22.59;51.08
58686;BME280;44465;53.206;-6.106;2023-07-24T08:13:34;100950.41;;;22.58;51.07
58686;BME280;44465;53.206;-6.106;2023-07-24T08:15:59;100959.22;;;22.60;50.83
58686;BME280;44465;53.206;-6.106;2023-07-24T08:18:26;100959.41;;;22.57;50.96
58686;BME280;44465;53.206;-6.106;2023-07-24T08:20:52;100968.22;;;22.59;51.07
58686;BME280;44465;53.206;-6.106;2023-07-24T08:23:17;100973.66;;;22.57;50.97
58686;BME280;44465;53.206;-6.106;2023-07-24T08:26:01;100965.81;;;22.54;51.04
58686;BME280;44465;53.206;-6.106;2023-07-24T08:28:27;100972.94;;;22.55;50.80
58686;BME280;44465;53.206;-6.106;2023-07-24T08:30:57;100964.25;;;22.50;51.13
58686;BME280;44465;53.206;-6.106;2023-07-24T08:33:23;100965.91;;;22.53;51.08
58686;BME280;44465;53.206;-6.106;2023-07-24T08:36:07;100967.72;;;22.52;51.02
58686;BME280;44465;53.206;-6.106;2023-07-24T08:38:33;100970.03;;;22.58;50.95
58686;BME280;44465;53.206;-6.106;2023-07-24T08:41:10;100966.00;;;22.51;50.83
58686;BME280;44465;53.206;-6.106;2023-07-24T08:43:38;100978.03;;;22.60;50.90
58686;BME280;44465;53.206;-6.106;2023-07-24T08:46:04;100976.19;;;22.60;50.85
58686;BME280;44465;53.206;-6.106;2023-07-24T08:48:35;100984.13;;;22.62;50.86
58686;BME280;44465;53.206;-6.106;2023-07-24T08:51:04;100982.44;;;22.61;50.99
58686;BME280;44465;53.206;-6.106;2023-07-24T08:53:30;100985.19;;;22.59;51.09
58686;BME280;44465;53.206;-6.106;2023-07-24T08:55:59;100980.69;;;22.60;51.02
58686;BME280;44465;53.206;-6.106;2023-07-24T08:58:25;100991.78;;;22.54;51.14
58686;BME280;44465;53.206;-6.106;2023-07-24T09:00:50;100989.78;;;22.57;51.14
58686;BME280;44465;53.206;-6.106;2023-07-24T09:03:18;100978.97;;;22.59;50.88
58686;BME280;44465;53.206;-6.106;2023-07-24T09:05:44;100973.09;;;22.52;51.07
58686;BME280;44465;53.206;-6.106;2023-07-24T09:08:10;100978.34;;;22.54;50.94
58686;BME280;44465;53.206;-6.106;2023-07-24T09:10:35;100972.31;;;22.50;50.96
58686;BME280;44465;53.206;-6.106;2023-07-24T09:13:01;100994.03;;;22.61;50.88
58686;BME280;44465;53.206;-6.106;2023-07-24T09:15:39;100999.38;;;22.61;51.13
58686;BME280;44465;53.206;-6.106;2023-07-24T09:18:04;100997.50;;;22.64;50.94
58686;BME280;44465;53.206;-6.106;2023-07-24T09:20:41;101000.16;;;22.64;50.75
58686;BME280;44465;53.206;-6.106;2023-07-24T09:23:07;100997.38;;;22.65;51.06
58686;BME280;44465;53.206;-6.106;2023-07-24T09:25:35;100992.28;;;22.60;51.00
58686;BME280;44465;53.206;-6.106;2023-07-24T09:28:08;100989.59;;;22.60;50.67
58686;BME280;44465;53.206;-6.106;2023-07-24T09:30:34;101008.81;;;22.69;50.86
58686;BME280;44465;53.206;-6.106;2023-07-24T09:32:59;101010.63;;;22.68;50.72
58686;BME280;44465;53.206;-6.106;2023-07-24T09:35:24;101006.13;;;22.69;50.84
58686;BME280;44465;53.206;-6.106;2023-07-24T09:38:09;101009.69;;;22.69;50.76
58686;BME280;44465;53.206;-6.106;2023-07-24T09:40:43;101003.44;;;22.69;50.89
58686;BME280;44465;53.206;-6.106;2023-07-24T09:45:43;101001.69;;;22.68;50.67
58686;BME280;44465;53.206;-6.106;2023-07-24T09:48:11;101014.28;;;22.67;50.74
58686;BME280;44465;53.206;-6.106;2023-07-24T09:50:47;101004.47;;;22.66;50.71
58686;BME280;44465;53.206;-6.106;2023-07-24T09:55:56;101014.16;;;22.69;50.81
58686;BME280;44465;53.206;-6.106;2023-07-24T09:58:23;101008.06;;;22.67;50.81
58686;BME280;44465;53.206;-6.106;2023-07-24T10:00:49;101009.75;;;22.68;50.64
58686;BME280;44465;53.206;-6.106;2023-07-24T10:03:16;101008.53;;;22.73;51.04
58686;BME280;44465;53.206;-6.106;2023-07-24T10:05:44;101016.69;;;22.72;50.82
58686;BME280;44465;53.206;-6.106;2023-07-24T10:08:10;101007.84;;;22.70;50.62
58686;BME280;44465;53.206;-6.106;2023-07-24T10:10:38;101009.56;;;22.71;50.90
58686;BME280;44465;53.206;-6.106;2023-07-24T10:13:04;101019.97;;;22.77;50.82
58686;BME280;44465;53.206;-6.106;2023-07-24T10:15:30;101022.66;;;22.77;50.75
58686;BME280;44465;53.206;-6.106;2023-07-24T10:18:06;101011.91;;;22.77;50.72
58686;BME280;44465;53.206;-6.106;2023-07-24T10:20:33;101010.34;;;22.73;50.87
58686;BME280;44465;53.206;-6.106;2023-07-24T10:23:03;101018.78;;;22.67;51.01
58686;BME280;44465;53.206;-6.106;2023-07-24T10:25:32;101023.09;;;22.69;51.03
58686;BME280;44465;53.206;-6.106;2023-07-24T10:28:05;101018.59;;;22.70;50.95
58686;BME280;44465;53.206;-6.106;2023-07-24T10:30:45;101010.97;;;22.62;50.98
58686;BME280;44465;53.206;-6.106;2023-07-24T10:33:20;101009.97;;;22.65;50.86
58686;BME280;44465;53.206;-6.106;2023-07-24T10:36:04;101011.47;;;22.69;50.84
58686;BME280;44465;53.206;-6.106;2023-07-24T10:38:35;101008.06;;;22.67;50.90
58686;BME280;44465;53.206;-6.106;2023-07-24T10:41:02;101021.00;;;22.74;50.70
58686;BME280;44465;53.206;-6.106;2023-07-24T10:43:29;101015.56;;;22.76;50.72
58686;BME280;44465;53.206;-6.106;2023-07-24T10:45:54;101015.44;;;22.77;50.85
58686;BME280;44465;53.206;-6.106;2023-07-24T10:48:21;101003.34;;;22.70;50.89
58686;BME280;44465;53.206;-6.106;2023-07-24T10:50:49;101015.44;;;22.77;50.65
58686;BME280;44465;53.206;-6.106;2023-07-24T10:53:17;101016.50;;;22.75;50.93
58686;BME280;44465;53.206;-6.106;2023-07-24T10:55:43;101016.50;;;22.75;50.76
58686;BME280;44465;53.206;-6.106;2023-07-24T10:58:10;100997.31;;;22.67;50.85
58686;BME280;44465;53.206;-6.106;2023-07-24T11:00:36;101035.88;;;22.80;50.56
58686;BME280;44465;53.206;-6.106;2023-07-24T11:03:02;101029.66;;;22.80;50.75
58686;BME280;44465;53.206;-6.106;2023-07-24T11:05:28;101013.03;;;22.73;50.79
58686;BME280;44465;53.206;-6.106;2023-07-24T11:07:54;101027.03;;;22.78;50.65
58686;BME280;44465;53.206;-6.106;2023-07-24T11:10:21;101025.41;;;22.75;50.79
58686;BME280;44465;53.206;-6.106;2023-07-24T11:12:47;101024.56;;;22.75;50.72
58686;BME280;44465;53.206;-6.106;2023-07-24T11:15:14;101027.03;;;22.78;50.71
58686;BME280;44465;53.206;-6.106;2023-07-24T11:17:40;101028.72;;;22.81;50.74
58686;BME280;44465;53.206;-6.106;2023-07-24T11:22:33;101029.44;;;22.83;50.83
58686;BME280;44465;53.206;-6.106;2023-07-24T11:24:58;101038.38;;;22.83;50.92
58686;BME280;44465;53.206;-6.106;2023-07-24T11:27:25;101034.94;;;22.81;50.86
58686;BME280;44465;53.206;-6.106;2023-07-24T11:29:50;101039.16;;;22.85;50.91
58686;BME280;44465;53.206;-6.106;2023-07-24T11:32:19;101039.16;;;22.85;50.66
58686;BME280;44465;53.206;-6.106;2023-07-24T11:34:47;101033.81;;;22.85;50.94
58686;BME280;44465;53.206;-6.106;2023-07-24T11:37:13;101035.53;;;22.86;50.77
58686;BME280;44465;53.206;-6.106;2023-07-24T11:39:39;101040.91;;;22.86;50.84
58686;BME280;44465;53.206;-6.106;2023-07-24T11:42:05;101045.38;;;22.86;50.66
58686;BME280;44465;53.206;-6.106;2023-07-24T11:44:30;101051.66;;;22.86;50.51
58686;BME280;44465;53.206;-6.106;2023-07-24T11:47:02;101045.50;;;22.84;50.88
58686;BME280;44465;53.206;-6.106;2023-07-24T11:49:29;101048.19;;;22.84;50.77
58686;BME280;44465;53.206;-6.106;2023-07-24T11:52:03;101028.19;;;22.74;50.70
58686;BME280;44465;53.206;-6.106;2023-07-24T11:54:30;101043.16;;;22.78;50.67
58686;BME280;44465;53.206;-6.106;2023-07-24T11:56:56;101035.88;;;22.80;50.51
58686;BME280;44465;53.206;-6.106;2023-07-24T11:59:22;101042.81;;;22.84;50.65
58686;BME280;44465;53.206;-6.106;2023-07-24T12:01:48;101047.91;;;22.89;50.63
58686;BME280;44465;53.206;-6.106;2023-07-24T12:04:14;101045.50;;;22.84;50.83
58686;BME280;44465;53.206;-6.106;2023-07-24T12:06:41;101054.06;;;22.91;50.61
58686;BME280;44465;53.206;-6.106;2023-07-24T12:09:06;101048.59;;;22.92;50.75
58686;BME280;44465;53.206;-6.106;2023-07-24T12:11:32;101053.94;;;22.92;50.67
58686;BME280;44465;53.206;-6.106;2023-07-24T12:13:58;101054.81;;;22.93;50.82
58686;BME280;44465;53.206;-6.106;2023-07-24T12:16:24;101049.34;;;22.95;50.72
58686;BME280;44465;53.206;-6.106;2023-07-24T12:18:50;101046.06;;;22.89;50.73
58686;BME280;44465;53.206;-6.106;2023-07-24T12:21:16;101047.72;;;22.92;50.68
58686;BME280;44465;53.206;-6.106;2023-07-24T12:23:41;101046.28;;;22.86;50.66
58686;BME280;44465;53.206;-6.106;2023-07-24T12:26:06;101038.38;;;22.83;50.68
58686;BME280;44465;53.206;-6.106;2023-07-24T12:28:32;101051.44;;;22.89;50.63
58686;BME280;44465;53.206;-6.106;2023-07-24T12:30:58;101040.69;;;22.89;50.60
58686;BME280;44465;53.206;-6.106;2023-07-24T12:33:23;101046.06;;;22.89;50.49
58686;BME280;44465;53.206;-6.106;2023-07-24T12:35:49;101038.13;;;22.88;50.59
58686;BME280;44465;53.206;-6.106;2023-07-24T12:38:15;101048.69;;;22.91;50.69
58686;BME280;44465;53.206;-6.106;2023-07-24T12:40:40;101039.69;;;22.92;50.66
58686;BME280;44465;53.206;-6.106;2023-07-24T12:43:06;101041.38;;;22.93;50.73
58686;BME280;44465;53.206;-6.106;2023-07-24T12:45:31;101041.31;;;22.95;50.63
58686;BME280;44465;53.206;-6.106;2023-07-24T12:47:56;101041.31;;;22.95;50.79
58686;BME280;44465;53.206;-6.106;2023-07-24T12:50:22;101044.00;;;22.95;50.73